Terminal Aerodrome Forecast
Issued by NWS Wilmington, OH

Current Version | Previous Version | Graphics & Text | Print | Product List | Glossary On
Versions: 1 2 3 4 5 6 7 8 9 10 11 12 13 14 15 16 17 18 19 20 21
289
FTUS41 KILN 241136
TAFDAY
TAF
KDAY 241136Z 2412/2512 20014G22KT P6SM BKN150 WS020/21045KT
     FM241400 21015G23KT P6SM SCT040 BKN150
     FM241800 21016G24KT P6SM OVC040
     FM242300 21011G16KT P6SM BKN090
     FM250900 18009KT P6SM OVC080 WS015/21040KT=

USA.gov is the U.S. government's official web portal to all federal, state and local government web resources and services.